sensor_id;sensor_type;location;lat;lon;timestamp;pressure;altitude;pressure_sealevel;temperature;humidity
60228;BME280;46091;46.512;6.626;2022-09-13T06:03:36;96547.09;;;20.70;68.01
60228;BME280;46091;46.512;6.626;2022-09-13T06:05:39;96550.94;;;21.00;67.51
60228;BME280;46091;46.512;6.626;2022-09-13T06:07:42;96548.03;;;21.21;67.19
60228;BME280;46091;46.512;6.626;2022-09-13T06:09:45;96552.69;;;21.41;66.93
60228;BME280;46091;46.512;6.626;2022-09-13T06:11:48;96566.13;;;21.57;66.40
60228;BME280;46091;46.512;6.626;2022-09-13T06:13:51;96560.19;;;21.70;66.27
60228;BME280;46091;46.512;6.626;2022-09-13T06:15:55;96555.63;;;21.80;65.75
60228;BME280;46091;46.512;6.626;2022-09-13T06:17:58;96547.81;;;21.89;65.43
60228;BME280;46091;46.512;6.626;2022-09-13T06:20:03;96535.97;;;21.95;65.36
60228;BME280;46091;46.512;6.626;2022-09-13T06:22:06;96529.50;;;22.01;64.93
60228;BME280;46091;46.512;6.626;2022-09-13T06:24:09;96519.78;;;22.05;64.35
60228;BME280;46091;46.512;6.626;2022-09-13T06:26:13;96523.59;;;22.10;64.16
60228;BME280;46091;46.512;6.626;2022-09-13T06:28:16;96527.06;;;22.15;63.95
60228;BME280;46091;46.512;6.626;2022-09-13T06:30:21;96527.06;;;22.20;63.96
60228;BME280;46091;46.512;6.626;2022-09-13T06:32:24;96530.56;;;22.26;63.50
60228;BME280;46091;46.512;6.626;2022-09-13T06:34:27;96531.59;;;22.30;63.09
60228;BME280;46091;46.512;6.626;2022-09-13T06:36:33;96529.19;;;22.33;63.20
60228;BME280;46091;46.512;6.626;2022-09-13T06:38:38;96520.56;;;22.36;63.10
60228;BME280;46091;46.512;6.626;2022-09-13T06:40:40;96527.56;;;22.37;62.42
60228;BME280;46091;46.512;6.626;2022-09-13T06:42:43;96528.34;;;22.38;62.35
60228;BME280;46091;46.512;6.626;2022-09-13T06:44:46;96534.78;;;22.42;62.10
60228;BME280;46091;46.512;6.626;2022-09-13T06:46:48;96533.47;;;22.45;62.01
60228;BME280;46091;46.512;6.626;2022-09-13T06:48:51;96534.00;;;22.47;62.09
60228;BME280;46091;46.512;6.626;2022-09-13T06:50:57;96535.31;;;22.49;61.30
60228;BME280;46091;46.512;6.626;2022-09-13T06:53:04;96529.66;;;22.51;61.47
60228;BME280;46091;46.512;6.626;2022-09-13T06:55:08;96539.91;;;22.54;61.01
60228;BME280;46091;46.512;6.626;2022-09-13T06:57:22;96543.91;;;22.56;60.96
60228;BME280;46091;46.512;6.626;2022-09-13T06:59:26;96545.53;;;22.57;60.82
60228;BME280;46091;46.512;6.626;2022-09-13T07:01:30;96545.50;;;22.62;60.65
60228;BME280;46091;46.512;6.626;2022-09-13T07:03:33;96549.81;;;22.69;60.12
60228;BME280;46091;46.512;6.626;2022-09-13T07:05:39;96551.66;;;22.73;60.05
60228;BME280;46091;46.512;6.626;2022-09-13T07:07:42;96547.34;;;22.77;60.04
60228;BME280;46091;46.512;6.626;2022-09-13T07:09:47;96550.00;;;22.82;60.05
60228;BME280;46091;46.512;6.626;2022-09-13T07:11:52;96539.50;;;22.86;59.59
60228;BME280;46091;46.512;6.626;2022-09-13T07:13:56;96541.38;;;22.90;59.24
60228;BME280;46091;46.512;6.626;2022-09-13T07:16:01;96545.41;;;22.93;59.21
60228;BME280;46091;46.512;6.626;2022-09-13T07:18:04;96542.41;;;22.94;59.44
60228;BME280;46091;46.512;6.626;2022-09-13T07:20:08;96549.41;;;22.95;59.40
60228;BME280;46091;46.512;6.626;2022-09-13T07:22:11;96554.25;;;22.99;58.81
60228;BME280;46091;46.512;6.626;2022-09-13T07:24:14;96552.91;;;23.01;58.59
60228;BME280;46091;46.512;6.626;2022-09-13T07:26:18;96558.81;;;23.03;58.63
60228;BME280;46091;46.512;6.626;2022-09-13T07:28:21;96553.44;;;23.03;58.81
60228;BME280;46091;46.512;6.626;2022-09-13T07:30:28;96557.47;;;23.06;58.15
60228;BME280;46091;46.512;6.626;2022-09-13T07:32:31;96546.66;;;23.06;58.54
60228;BME280;46091;46.512;6.626;2022-09-13T07:34:34;96545.31;;;23.08;57.88
60228;BME280;46091;46.512;6.626;2022-09-13T07:36:37;96554.75;;;23.11;57.79
60228;BME280;46091;46.512;6.626;2022-09-13T07:38:42;96558.78;;;23.13;57.82
60228;BME280;46091;46.512;6.626;2022-09-13T07:40:53;96562.50;;;23.17;58.03
60228;BME280;46091;46.512;6.626;2022-09-13T07:42:59;96559.53;;;23.19;57.53
60228;BME280;46091;46.512;6.626;2022-09-13T07:45:03;96556.84;;;23.19;57.42
60228;BME280;46091;46.512;6.626;2022-09-13T07:47:06;96557.63;;;23.19;57.60
60228;BME280;46091;46.512;6.626;2022-09-13T07:49:11;96549.00;;;23.22;57.32
60228;BME280;46091;46.512;6.626;2022-09-13T07:51:18;96553.31;;;23.23;57.65
60228;BME280;46091;46.512;6.626;2022-09-13T07:53:21;96556.31;;;23.22;57.73
60228;BME280;46091;46.512;6.626;2022-09-13T07:55:24;96556.00;;;23.23;56.98
60228;BME280;46091;46.512;6.626;2022-09-13T07:57:29;96552.22;;;23.24;57.05
60228;BME280;46091;46.512;6.626;2022-09-13T07:59:33;96546.84;;;23.24;57.02
60228;BME280;46091;46.512;6.626;2022-09-13T08:01:38;96544.13;;;23.24;57.16
60228;BME280;46091;46.512;6.626;2022-09-13T08:03:47;96558.72;;;23.23;56.72
60228;BME280;46091;46.512;6.626;2022-09-13T08:05:52;96564.91;;;23.24;56.69
60228;BME280;46091;46.512;6.626;2022-09-13T08:07:55;96571.09;;;23.24;57.10
60228;BME280;46091;46.512;6.626;2022-09-13T08:09:59;96567.31;;;23.26;56.82
60228;BME280;46091;46.512;6.626;2022-09-13T08:12:02;96559.22;;;23.26;56.70
60228;BME280;46091;46.512;6.626;2022-09-13T08:14:07;96561.13;;;23.25;56.86
60228;BME280;46091;46.512;6.626;2022-09-13T08:16:13;96566.25;;;23.27;56.40
60228;BME280;46091;46.512;6.626;2022-09-13T08:18:21;96564.63;;;23.26;56.67
60228;BME280;46091;46.512;6.626;2022-09-13T08:20:25;96563.00;;;23.24;56.38
60228;BME280;46091;46.512;6.626;2022-09-13T08:22:28;96564.63;;;23.26;56.29
60228;BME280;46091;46.512;6.626;2022-09-13T08:24:32;96569.22;;;23.25;56.16
60228;BME280;46091;46.512;6.626;2022-09-13T08:26:35;96564.63;;;23.26;56.27
60228;BME280;46091;46.512;6.626;2022-09-13T08:28:41;96569.16;;;23.30;56.32
60228;BME280;46091;46.512;6.626;2022-09-13T08:30:54;96576.72;;;23.33;55.95
60228;BME280;46091;46.512;6.626;2022-09-13T08:32:59;96562.97;;;23.35;56.21
60228;BME280;46091;46.512;6.626;2022-09-13T08:35:04;96562.97;;;23.35;56.00
60228;BME280;46091;46.512;6.626;2022-09-13T08:37:07;96568.88;;;23.37;55.61
60228;BME280;46091;46.512;6.626;2022-09-13T08:39:11;96561.88;;;23.36;55.56
60228;BME280;46091;46.512;6.626;2022-09-13T08:41:25;96557.50;;;23.40;56.04
60228;BME280;46091;46.512;6.626;2022-09-13T08:43:39;96557.22;;;23.41;55.56
60228;BME280;46091;46.512;6.626;2022-09-13T08:45:48;96548.34;;;23.41;55.72
60228;BME280;46091;46.512;6.626;2022-09-13T08:47:55;96550.22;;;23.40;55.39
60228;BME280;46091;46.512;6.626;2022-09-13T08:50:05;96558.56;;;23.44;55.24
60228;BME280;46091;46.512;6.626;2022-09-13T08:52:23;96543.47;;;23.43;54.84
60228;BME280;46091;46.512;6.626;2022-09-13T08:54:29;96545.63;;;23.46;55.05
60228;BME280;46091;46.512;6.626;2022-09-13T08:56:37;96550.19;;;23.45;54.69
60228;BME280;46091;46.512;6.626;2022-09-13T08:59:06;96549.66;;;23.43;54.37
60228;BME280;46091;46.512;6.626;2022-09-13T09:01:22;96544.00;;;23.45;54.40
60228;BME280;46091;46.512;6.626;2022-09-13T09:03:37;96539.13;;;23.47;53.97
60228;BME280;46091;46.512;6.626;2022-09-13T09:05:45;96542.06;;;23.50;54.26
60228;BME280;46091;46.512;6.626;2022-09-13T09:07:52;96527.19;;;23.53;54.00
60228;BME280;46091;46.512;6.626;2022-09-13T09:10:02;96537.69;;;23.54;54.07
60228;BME280;46091;46.512;6.626;2022-09-13T09:12:15;96529.91;;;23.58;53.36
60228;BME280;46091;46.512;6.626;2022-09-13T09:14:24;96532.03;;;23.61;53.36
60228;BME280;46091;46.512;6.626;2022-09-13T09:16:36;96531.44;;;23.64;53.27
60228;BME280;46091;46.512;6.626;2022-09-13T09:18:43;96544.13;;;23.69;53.58
60228;BME280;46091;46.512;6.626;2022-09-13T09:20:50;96546.25;;;23.72;53.38
60228;BME280;46091;46.512;6.626;2022-09-13T09:22:54;96546.75;;;23.74;53.35
60228;BME280;46091;46.512;6.626;2022-09-13T09:24:57;96551.06;;;23.75;53.33
60228;BME280;46091;46.512;6.626;2022-09-13T09:27:10;96538.63;;;23.79;53.68
60228;BME280;46091;46.512;6.626;2022-09-13T09:29:18;96534.03;;;23.79;53.32
60228;BME280;46091;46.512;6.626;2022-09-13T09:31:31;96523.75;;;23.81;53.57
60228;BME280;46091;46.512;6.626;2022-09-13T09:33:47;96527.78;;;23.84;53.26
60228;BME280;46091;46.512;6.626;2022-09-13T09:36:00;96522.38;;;23.84;53.40
60228;BME280;46091;46.512;6.626;2022-09-13T09:38:27;96519.41;;;23.86;53.41
60228;BME280;46091;46.512;6.626;2022-09-13T09:40:34;96504.00;;;23.86;53.17
60228;BME280;46091;46.512;6.626;2022-09-13T09:42:41;96508.00;;;23.89;52.89
60228;BME280;46091;46.512;6.626;2022-09-13T09:44:46;96515.03;;;23.90;53.20
60228;BME280;46091;46.512;6.626;2022-09-13T09:46:54;96511.25;;;23.91;53.13
60228;BME280;46091;46.512;6.626;2022-09-13T09:49:04;96505.88;;;23.91;52.92
60228;BME280;46091;46.512;6.626;2022-09-13T09:51:33;96495.06;;;23.91;53.49
60228;BME280;46091;46.512;6.626;2022-09-13T09:53:38;96495.56;;;23.93;53.05
60228;BME280;46091;46.512;6.626;2022-09-13T09:55:45;96499.88;;;23.94;53.04
60228;BME280;46091;46.512;6.626;2022-09-13T09:57:50;96494.50;;;23.94;53.21
60228;BME280;46091;46.512;6.626;2022-09-13T10:00:09;96492.31;;;23.96;53.07
60228;BME280;46091;46.512;6.626;2022-09-13T10:02:19;96485.81;;;23.97;52.91
60228;BME280;46091;46.512;6.626;2022-09-13T10:04:23;96500.34;;;24.01;52.80
60228;BME280;46091;46.512;6.626;2022-09-13T10:06:26;96501.16;;;24.01;53.16
60228;BME280;46091;46.512;6.626;2022-09-13T10:08:33;96496.56;;;24.02;53.17
60228;BME280;46091;46.512;6.626;2022-09-13T10:10:39;96503.28;;;24.04;53.06
60228;BME280;46091;46.512;6.626;2022-09-13T10:12:48;96504.09;;;24.05;52.96
60228;BME280;46091;46.512;6.626;2022-09-13T10:15:03;96504.59;;;24.07;52.61
60228;BME280;46091;46.512;6.626;2022-09-13T10:17:15;96507.81;;;24.09;52.65
60228;BME280;46091;46.512;6.626;2022-09-13T10:19:23;96505.63;;;24.11;52.39
60228;BME280;46091;46.512;6.626;2022-09-13T10:21:26;96505.63;;;24.11;52.53
60228;BME280;46091;46.512;6.626;2022-09-13T10:23:32;96498.06;;;24.13;52.29
60228;BME280;46091;46.512;6.626;2022-09-13T10:25:36;96502.38;;;24.14;52.63
60228;BME280;46091;46.512;6.626;2022-09-13T10:27:41;96494.50;;;24.18;52.22
60228;BME280;46091;46.512;6.626;2022-09-13T10:29:50;96496.91;;;24.19;52.24
60228;BME280;46091;46.512;6.626;2022-09-13T10:31:55;96492.31;;;24.20;52.41
60228;BME280;46091;46.512;6.626;2022-09-13T10:34:01;96498.53;;;24.20;52.05
60228;BME280;46091;46.512;6.626;2022-09-13T10:36:07;96502.53;;;24.23;51.98
60228;BME280;46091;46.512;6.626;2022-09-13T10:38:25;96497.38;;;24.26;52.12
60228;BME280;46091;46.512;6.626;2022-09-13T10:40:32;96492.78;;;24.27;51.98
60228;BME280;46091;46.512;6.626;2022-09-13T10:42:35;96490.88;;;24.27;51.64
60228;BME280;46091;46.512;6.626;2022-09-13T10:44:42;96485.47;;;24.27;52.07
60228;BME280;46091;46.512;6.626;2022-09-13T10:46:47;96495.19;;;24.28;51.88
60228;BME280;46091;46.512;6.626;2022-09-13T10:48:51;96489.25;;;24.31;51.65
60228;BME280;46091;46.512;6.626;2022-09-13T10:51:03;96480.03;;;24.32;51.98
60228;BME280;46091;46.512;6.626;2022-09-13T10:53:29;96471.94;;;24.32;51.73
60228;BME280;46091;46.512;6.626;2022-09-13T10:55:35;96472.44;;;24.34;51.67
60228;BME280;46091;46.512;6.626;2022-09-13T10:57:42;96460.03;;;24.33;51.95
60228;BME280;46091;46.512;6.626;2022-09-13T10:59:51;96458.94;;;24.34;51.95
60228;BME280;46091;46.512;6.626;2022-09-13T11:02:06;96457.88;;;24.35;51.68
60228;BME280;46091;46.512;6.626;2022-09-13T11:04:53;96463.78;;;24.37;51.94
60228;BME280;46091;46.512;6.626;2022-09-13T11:07:06;96460.00;;;24.38;52.02
60228;BME280;46091;46.512;6.626;2022-09-13T11:09:14;96460.28;;;24.37;51.69
60228;BME280;46091;46.512;6.626;2022-09-13T11:11:23;96470.78;;;24.38;52.07
60228;BME280;46091;46.512;6.626;2022-09-13T11:13:37;96466.50;;;24.37;52.07
60228;BME280;46091;46.512;6.626;2022-09-13T11:15:54;96468.09;;;24.38;51.83
60228;BME280;46091;46.512;6.626;2022-09-13T11:20:36;96463.78;;;24.37;52.33
60228;BME280;46091;46.512;6.626;2022-09-13T11:23:04;96467.28;;;24.38;52.00
60228;BME280;46091;46.512;6.626;2022-09-13T11:25:20;96463.78;;;24.37;52.29
60228;BME280;46091;46.512;6.626;2022-09-13T11:27:32;96471.31;;;24.41;52.36
60228;BME280;46091;46.512;6.626;2022-09-13T11:32:23;96481.78;;;24.47;52.31
60228;BME280;46091;46.512;6.626;2022-09-13T11:34:34;96489.59;;;24.49;52.48
60228;BME280;46091;46.512;6.626;2022-09-13T11:37:04;96482.56;;;24.48;52.21
60228;BME280;46091;46.512;6.626;2022-09-13T11:39:22;96478.78;;;24.49;52.22
60228;BME280;46091;46.512;6.626;2022-09-13T11:41:36;96495.00;;;24.49;52.70
60228;BME280;46091;46.512;6.626;2022-09-13T11:43:56;96487.38;;;24.51;52.53
60228;BME280;46091;46.512;6.626;2022-09-13T11:46:09;96483.59;;;24.52;52.55
60228;BME280;46091;46.512;6.626;2022-09-13T11:48:24;96483.09;;;24.50;52.58
60228;BME280;46091;46.512;6.626;2022-09-13T11:50:35;96484.97;;;24.49;52.45
60228;BME280;46091;46.512;6.626;2022-09-13T11:52:52;96476.06;;;24.49;52.36
60228;BME280;46091;46.512;6.626;2022-09-13T11:55:07;96469.56;;;24.50;52.23
60228;BME280;46091;46.512;6.626;2022-09-13T11:57:18;96472.78;;;24.52;52.33
60228;BME280;46091;46.512;6.626;2022-09-13T11:59:34;96469.78;;;24.53;52.50
60228;BME280;46091;46.512;6.626;2022-09-13T12:01:44;96457.38;;;24.52;52.66
60228;BME280;46091;46.512;6.626;2022-09-13T12:03:51;96459.50;;;24.55;52.34
60228;BME280;46091;46.512;6.626;2022-09-13T12:06:01;96457.59;;;24.56;52.32
60228;BME280;46091;46.512;6.626;2022-09-13T12:08:12;96458.94;;;24.58;52.35
60228;BME280;46091;46.512;6.626;2022-09-13T12:10:22;96460.25;;;24.61;52.19
60228;BME280;46091;46.512;6.626;2022-09-13T12:12:30;96448.34;;;24.62;52.44
60228;BME280;46091;46.512;6.626;2022-09-13T12:14:41;96452.84;;;24.66;51.96
60228;BME280;46091;46.512;6.626;2022-09-13T12:16:48;96442.84;;;24.67;51.86
60228;BME280;46091;46.512;6.626;2022-09-13T12:18:56;96436.34;;;24.68;51.86
60228;BME280;46091;46.512;6.626;2022-09-13T12:21:04;96443.38;;;24.69;51.41
60228;BME280;46091;46.512;6.626;2022-09-13T12:23:15;96445.50;;;24.72;51.38
60228;BME280;46091;46.512;6.626;2022-09-13T12:25:24;96451.41;;;24.74;51.57
60228;BME280;46091;46.512;6.626;2022-09-13T12:27:37;96453.00;;;24.75;51.20
60228;BME280;46091;46.512;6.626;2022-09-13T12:29:47;96452.22;;;24.75;51.08
60228;BME280;46091;46.512;6.626;2022-09-13T12:31:57;96458.94;;;24.77;50.84
60228;BME280;46091;46.512;6.626;2022-09-13T12:34:03;96451.31;;;24.79;50.65
60228;BME280;46091;46.512;6.626;2022-09-13T12:36:27;96445.13;;;24.79;50.52
60228;BME280;46091;46.512;6.626;2022-09-13T12:38:54;96446.44;;;24.81;50.82
60228;BME280;46091;46.512;6.626;2022-09-13T12:41:13;96442.66;;;24.82;50.67
60228;BME280;46091;46.512;6.626;2022-09-13T12:43:49;96438.84;;;24.83;50.58
60228;BME280;46091;46.512;6.626;2022-09-13T12:46:18;96440.75;;;24.83;50.35
60228;BME280;46091;46.512;6.626;2022-09-13T12:51:03;96444.75;;;24.85;50.59
60228;BME280;46091;46.512;6.626;2022-09-13T12:53:17;96447.75;;;24.84;50.16
60228;BME280;46091;46.512;6.626;2022-09-13T12:55:39;96439.34;;;24.85;50.41
60228;BME280;46091;46.512;6.626;2022-09-13T12:57:52;96447.97;;;24.87;50.00
60228;BME280;46091;46.512;6.626;2022-09-13T13:00:10;96437.16;;;24.87;49.85
60228;BME280;46091;46.512;6.626;2022-09-13T13:02:27;96441.16;;;24.90;49.89
60228;BME280;46091;46.512;6.626;2022-09-13T13:04:33;96435.47;;;24.91;49.88
60228;BME280;46091;46.512;6.626;2022-09-13T13:06:40;96430.59;;;24.93;50.11
60228;BME280;46091;46.512;6.626;2022-09-13T13:08:50;96425.97;;;24.94;49.77
60228;BME280;46091;46.512;6.626;2022-09-13T13:11:02;96424.59;;;24.96;49.65
60228;BME280;46091;46.512;6.626;2022-09-13T13:13:14;96421.28;;;25.00;50.02
60228;BME280;46091;46.512;6.626;2022-09-13T13:15:58;96420.19;;;25.01;49.99
60228;BME280;46091;46.512;6.626;2022-09-13T13:18:22;96414.78;;;25.01;49.92
60228;BME280;46091;46.512;6.626;2022-09-13T13:20:47;96413.44;;;25.03;49.99
60228;BME280;46091;46.512;6.626;2022-09-13T13:23:14;96413.16;;;25.05;49.80
60228;BME280;46091;46.512;6.626;2022-09-13T13:25:31;96414.25;;;25.04;49.97
60228;BME280;46091;46.512;6.626;2022-09-13T13:27:41;96404.50;;;25.03;50.07
60228;BME280;46091;46.512;6.626;2022-09-13T13:33:04;96408.84;;;25.04;49.70
60228;BME280;46091;46.512;6.626;2022-09-13T13:35:28;96412.03;;;25.06;49.91
60228;BME280;46091;46.512;6.626;2022-09-13T13:37:34;96408.25;;;25.07;49.63
60228;BME280;46091;46.512;6.626;2022-09-13T13:39:41;96399.53;;;25.10;49.51
60228;BME280;46091;46.512;6.626;2022-09-13T13:41:52;96391.91;;;25.12;49.97
60228;BME280;46091;46.512;6.626;2022-09-13T13:43:58;96383.22;;;25.15;49.94
60228;BME280;46091;46.512;6.626;2022-09-13T13:46:27;96387.25;;;25.17;49.74
60228;BME280;46091;46.512;6.626;2022-09-13T13:48:36;96385.63;;;25.16;49.50
60228;BME280;46091;46.512;6.626;2022-09-13T13:51:19;96386.44;;;25.17;49.63
60228;BME280;46091;46.512;6.626;2022-09-13T13:53:34;96387.00;;;25.14;49.65
60228;BME280;46091;46.512;6.626;2022-09-13T13:55:41;96383.81;;;25.12;49.66
60228;BME280;46091;46.512;6.626;2022-09-13T13:57:51;96389.81;;;25.09;49.17
60228;BME280;46091;46.512;6.626;2022-09-13T14:00:05;96386.41;;;25.03;49.54
60228;BME280;46091;46.512;6.626;2022-09-13T14:02:14;96386.13;;;25.00;49.60
60228;BME280;46091;46.512;6.626;2022-09-13T14:04:46;96384.53;;;24.98;49.48
60228;BME280;46091;46.512;6.626;2022-09-13T14:07:01;96382.13;;;24.97;49.45
60228;BME280;46091;46.512;6.626;2022-09-13T14:09:28;96382.94;;;24.97;48.99
60228;BME280;46091;46.512;6.626;2022-09-13T14:11:47;96377.22;;;24.99;48.91
60228;BME280;46091;46.512;6.626;2022-09-13T14:14:02;96381.53;;;25.00;48.98
60228;BME280;46091;46.512;6.626;2022-09-13T14:16:16;96372.03;;;25.03;48.62
60228;BME280;46091;46.512;6.626;2022-09-13T14:18:41;96369.88;;;25.05;48.46
60228;BME280;46091;46.512;6.626;2022-09-13T14:21:16;96361.75;;;25.05;48.69
60228;BME280;46091;46.512;6.626;2022-09-13T14:23:21;96358.47;;;25.08;48.66
60228;BME280;46091;46.512;6.626;2022-09-13T14:25:24;96358.16;;;25.09;48.41
60228;BME280;46091;46.512;6.626;2022-09-13T14:27:29;96348.13;;;25.10;48.37
60228;BME280;46091;46.512;6.626;2022-09-13T14:29:32;96351.66;;;25.10;48.28
60228;BME280;46091;46.512;6.626;2022-09-13T14:31:36;96348.94;;;25.10;48.33
60228;BME280;46091;46.512;6.626;2022-09-13T14:33:39;96354.34;;;25.10;48.09
60228;BME280;46091;46.512;6.626;2022-09-13T14:35:42;96348.13;;;25.10;48.30
60228;BME280;46091;46.512;6.626;2022-09-13T14:37:45;96350.53;;;25.11;48.16
60228;BME280;46091;46.512;6.626;2022-09-13T14:39:57;96342.13;;;25.13;48.23
60228;BME280;46091;46.512;6.626;2022-09-13T14:42:11;96345.38;;;25.15;48.14
60228;BME280;46091;46.512;6.626;2022-09-13T14:44:19;96345.06;;;25.16;48.09
60228;BME280;46091;46.512;6.626;2022-09-13T14:46:35;96340.97;;;25.19;47.89
60228;BME280;46091;46.512;6.626;2022-09-13T14:48:45;96340.97;;;25.19;47.82
60228;BME280;46091;46.512;6.626;2022-09-13T14:50:55;96338.75;;;25.21;48.09
60228;BME280;46091;46.512;6.626;2022-09-13T14:53:02;96336.53;;;25.23;47.70
60228;BME280;46091;46.512;6.626;2022-09-13T14:55:13;96334.34;;;25.25;48.12
60228;BME280;46091;46.512;6.626;2022-09-13T14:57:21;96332.16;;;25.27;47.78
60228;BME280;46091;46.512;6.626;2022-09-13T14:59:27;96336.97;;;25.30;47.99
60228;BME280;46091;46.512;6.626;2022-09-13T15:01:34;96333.16;;;25.31;48.00
60228;BME280;46091;46.512;6.626;2022-09-13T15:03:40;96328.25;;;25.33;47.96
60228;BME280;46091;46.512;6.626;2022-09-13T15:05:50;96329.06;;;25.34;47.77
60228;BME280;46091;46.512;6.626;2022-09-13T15:07:53;96322.03;;;25.33;48.01
60228;BME280;46091;46.512;6.626;2022-09-13T15:10:03;96316.81;;;25.36;47.86
60228;BME280;46091;46.512;6.626;2022-09-13T15:12:21;96317.94;;;25.35;48.06
60228;BME280;46091;46.512;6.626;2022-09-13T15:14:27;96311.94;;;25.38;48.00
60228;BME280;46091;46.512;6.626;2022-09-13T15:16:32;96315.13;;;25.40;47.80
60228;BME280;46091;46.512;6.626;2022-09-13T15:18:35;96308.63;;;25.41;47.95
60228;BME280;46091;46.512;6.626;2022-09-13T15:20:48;96309.94;;;25.44;47.71
60228;BME280;46091;46.512;6.626;2022-09-13T15:22:52;96305.63;;;25.43;47.85
60228;BME280;46091;46.512;6.626;2022-09-13T15:24:56;96300.22;;;25.43;48.00
60228;BME280;46091;46.512;6.626;2022-09-13T15:27:05;96297.00;;;25.41;48.11
60228;BME280;46091;46.512;6.626;2022-09-13T15:29:17;96286.47;;;25.39;48.06
60228;BME280;46091;46.512;6.626;2022-09-13T15:31:22;96288.69;;;25.37;48.32
60228;BME280;46091;46.512;6.626;2022-09-13T15:33:27;96274.06;;;25.38;48.21
60228;BME280;46091;46.512;6.626;2022-09-13T15:35:38;96274.06;;;25.38;48.31
60228;BME280;46091;46.512;6.626;2022-09-13T15:37:41;96274.06;;;25.38;48.26
60228;BME280;46091;46.512;6.626;2022-09-13T15:39:46;96269.44;;;25.39;48.09
60228;BME280;46091;46.512;6.626;2022-09-13T15:41:51;96262.44;;;25.38;48.19
60228;BME280;46091;46.512;6.626;2022-09-13T15:43:54;96263.25;;;25.38;48.41
60228;BME280;46091;46.512;6.626;2022-09-13T15:45:59;96265.94;;;25.38;48.33
60228;BME280;46091;46.512;6.626;2022-09-13T15:48:03;96274.84;;;25.39;48.60
60228;BME280;46091;46.512;6.626;2022-09-13T15:50:08;96278.38;;;25.39;48.13
60228;BME280;46091;46.512;6.626;2022-09-13T15:52:19;96275.66;;;25.39;48.55
60228;BME280;46091;46.512;6.626;2022-09-13T15:54:26;96273.75;;;25.40;48.62
60228;BME280;46091;46.512;6.626;2022-09-13T15:56:33;96279.66;;;25.42;48.44
60228;BME280;46091;46.512;6.626;2022-09-13T15:58:38;96274.56;;;25.40;48.67
60228;BME280;46091;46.512;6.626;2022-09-13T16:00:40;96276.47;;;25.40;48.97
60228;BME280;46091;46.512;6.626;2022-09-13T16:02:48;96277.25;;;25.40;48.75
60228;BME280;46091;46.512;6.626;2022-09-13T16:04:51;96276.16;;;25.41;48.60
60228;BME280;46091;46.512;6.626;2022-09-13T16:06:54;96276.16;;;25.41;48.83
60228;BME280;46091;46.512;6.626;2022-09-13T16:08:57;96276.16;;;25.41;48.99
60228;BME280;46091;46.512;6.626;2022-09-13T16:11:00;96278.88;;;25.41;49.32
60228;BME280;46091;46.512;6.626;2022-09-13T16:13:03;96281.06;;;25.39;49.28
60228;BME280;46091;46.512;6.626;2022-09-13T16:15:07;96280.28;;;25.39;49.11
60228;BME280;46091;46.512;6.626;2022-09-13T16:17:11;96289.50;;;25.38;49.51
60228;BME280;46091;46.512;6.626;2022-09-13T16:19:16;96278.94;;;25.36;49.57
60228;BME280;46091;46.512;6.626;2022-09-13T16:21:19;96275.75;;;25.34;49.58
60228;BME280;46091;46.512;6.626;2022-09-13T16:23:22;96279.25;;;25.35;49.48
60228;BME280;46091;46.512;6.626;2022-09-13T16:25:25;96283.84;;;25.34;49.39
60228;BME280;46091;46.512;6.626;2022-09-13T16:27:28;96275.25;;;25.32;49.49
60228;BME280;46091;46.512;6.626;2022-09-13T16:29:34;96270.94;;;25.31;49.76
60228;BME280;46091;46.512;6.626;2022-09-13T16:31:37;96265.84;;;25.30;49.54
60228;BME280;46091;46.512;6.626;2022-09-13T16:33:40;96261.03;;;25.27;49.69
60228;BME280;46091;46.512;6.626;2022-09-13T16:35:45;96260.22;;;25.26;49.50
60228;BME280;46091;46.512;6.626;2022-09-13T16:37:48;96256.19;;;25.23;49.46
60228;BME280;46091;46.512;6.626;2022-09-13T16:39:55;96270.81;;;25.22;49.41
60228;BME280;46091;46.512;6.626;2022-09-13T16:41:58;96266.81;;;25.20;49.61
60228;BME280;46091;46.512;6.626;2022-09-13T16:44:01;96269.81;;;25.18;49.84
60228;BME280;46091;46.512;6.626;2022-09-13T16:46:06;96269.81;;;25.18;49.57
60228;BME280;46091;46.512;6.626;2022-09-13T16:48:09;96270.13;;;25.17;49.54
60228;BME280;46091;46.512;6.626;2022-09-13T16:50:12;96265.81;;;25.16;49.54
60228;BME280;46091;46.512;6.626;2022-09-13T16:52:18;96266.13;;;25.14;49.38
60228;BME280;46091;46.512;6.626;2022-09-13T16:54:20;96252.06;;;25.12;49.17
60228;BME280;46091;46.512;6.626;2022-09-13T16:56:24;96255.59;;;25.13;49.44
60228;BME280;46091;46.512;6.626;2022-09-13T16:58:27;96247.28;;;25.09;49.10
60228;BME280;46091;46.512;6.626;2022-09-13T17:00:30;96257.28;;;25.09;49.29
60228;BME280;46091;46.512;6.626;2022-09-13T17:02:33;96249.19;;;25.09;48.93
60228;BME280;46091;46.512;6.626;2022-09-13T17:04:36;96257.91;;;25.06;49.31
60228;BME280;46091;46.512;6.626;2022-09-13T17:06:38;96258.19;;;25.04;48.99
60228;BME280;46091;46.512;6.626;2022-09-13T17:08:46;96244.94;;;25.03;49.24
60228;BME280;46091;46.512;6.626;2022-09-13T17:10:49;96246.06;;;25.02;49.03
60228;BME280;46091;46.512;6.626;2022-09-13T17:12:52;96246.63;;;24.98;49.13
60228;BME280;46091;46.512;6.626;2022-09-13T17:14:55;96247.72;;;24.97;48.96
60228;BME280;46091;46.512;6.626;2022-09-13T17:16:58;96248.81;;;24.96;48.69
60228;BME280;46091;46.512;6.626;2022-09-13T17:19:04;96241.81;;;24.95;48.72
60228;BME280;46091;46.512;6.626;2022-09-13T17:21:07;96246.72;;;24.93;48.44
60228;BME280;46091;46.512;6.626;2022-09-13T17:23:10;96244.34;;;24.92;48.34
60228;BME280;46091;46.512;6.626;2022-09-13T17:25:14;96243.50;;;24.91;48.67
60228;BME280;46091;46.512;6.626;2022-09-13T17:27:17;96247.31;;;24.90;48.28
60228;BME280;46091;46.512;6.626;2022-09-13T17:29:20;96235.69;;;24.90;48.66
60228;BME280;46091;46.512;6.626;2022-09-13T17:31:22;96239.50;;;24.89;48.46
60228;BME280;46091;46.512;6.626;2022-09-13T17:33:25;96239.50;;;24.89;48.28
60228;BME280;46091;46.512;6.626;2022-09-13T17:35:28;96244.09;;;24.88;48.58